JBU1783 KFLL-SKCG
Flight info
| Callsign | JBU1783 |
|---|---|
| Flight time | 2h 25m |
| Altitude | 33000 |
| Route | N0436F330 MAYNR3 FUNDI UM335 JABIR/N0442F350 UM335 UDNET UL332 SIA DCT HANCK UP406 UBSUX DCT VARON VARO2B |
| Aircraft | A320/M-SDE3FGHIRWY/LB1 |
Departure
| Time | 2026-05-05 13:11 |
|---|---|
| Airport | Fort Lauderdale Hollywood International Airport (KFLL) |
Arrival
| Time | 2026-05-05 15:36 |
|---|---|
| Airport | Rafael Nuñez International Airport (SKCG) |
| Time | Latitude | Longitude | Altitude | Speed | Heading |
|---|---|---|---|---|---|
| 2026-05-05 12:42 | 26.07089 | -80.14618 | 79 ft | 0 kts | 1° |
| 2026-05-05 12:53 | 26.07085 | -80.14619 | 79 ft | 2 kts | 1° |
| 2026-05-05 12:53 | 26.07069 | -80.14619 | 79 ft | 3 kts | 1° |
| 2026-05-05 12:54 | 26.07032 | -80.14607 | 79 ft | 3 kts | 325° |
| 2026-05-05 12:54 | 26.07017 | -80.14591 | 79 ft | 3 kts | 307° |
| 2026-05-05 12:54 | 26.07007 | -80.14571 | 79 ft | 3 kts | 291° |
| 2026-05-05 12:55 | 26.07001 | -80.14550 | 79 ft | 3 kts | 278° |
| 2026-05-05 12:55 | 26.07000 | -80.14526 | 79 ft | 3 kts | 271° |
| 2026-05-05 12:55 | 26.07000 | -80.14516 | 79 ft | 0 kts | 270° |
| 2026-05-05 12:57 | 26.07000 | -80.14517 | 79 ft | 0 kts | 270° |
| 2026-05-05 12:57 | 26.07000 | -80.14530 | 79 ft | 4 kts | 271° |
| 2026-05-05 12:57 | 26.07002 | -80.14571 | 79 ft | 6 kts | 271° |
| 2026-05-05 12:57 | 26.07003 | -80.14619 | 79 ft | 6 kts | 271° |
| 2026-05-05 12:58 | 26.07003 | -80.14665 | 79 ft | 6 kts | 270° |
| 2026-05-05 12:58 | 26.07005 | -80.14711 | 79 ft | 6 kts | 287° |
| 2026-05-05 12:58 | 26.07036 | -80.14758 | 79 ft | 9 kts | 314° |
| 2026-05-05 12:58 | 26.07087 | -80.14818 | 79 ft | 12 kts | 315° |
| 2026-05-05 12:59 | 26.07151 | -80.14888 | 79 ft | 13 kts | 314° |
| 2026-05-05 12:59 | 26.07213 | -80.14958 | 79 ft | 13 kts | 314° |
| 2026-05-05 12:59 | 26.07274 | -80.15027 | 79 ft | 12 kts | 327° |
| 2026-05-05 13:00 | 26.07415 | -80.14998 | 79 ft | 10 kts | 39° |
| 2026-05-05 13:00 | 26.07459 | -80.15013 | 79 ft | 7 kts | 317° |
| 2026-05-05 13:01 | 26.07486 | -80.15168 | 79 ft | 8 kts | 273° |
| 2026-05-05 13:01 | 26.07487 | -80.15231 | 79 ft | 8 kts | 270° |
| 2026-05-05 13:01 | 26.07488 | -80.15293 | 79 ft | 8 kts | 271° |
| 2026-05-05 13:01 | 26.07489 | -80.15355 | 79 ft | 8 kts | 270° |
| 2026-05-05 13:02 | 26.07489 | -80.15418 | 79 ft | 8 kts | 271° |
| 2026-05-05 13:02 | 26.07491 | -80.15484 | 79 ft | 9 kts | 272° |
| 2026-05-05 13:02 | 26.07493 | -80.15557 | 79 ft | 10 kts | 270° |
| 2026-05-05 13:02 | 26.07492 | -80.15641 | 79 ft | 12 kts | 269° |
| 2026-05-05 13:03 | 26.07493 | -80.15737 | 79 ft | 13 kts | 271° |
| 2026-05-05 13:03 | 26.07494 | -80.15843 | 79 ft | 14 kts | 271° |
| 2026-05-05 13:03 | 26.07496 | -80.15960 | 79 ft | 16 kts | 271° |
| 2026-05-05 13:03 | 26.07497 | -80.16086 | 79 ft | 17 kts | 270° |
| 2026-05-05 13:04 | 26.07498 | -80.16224 | 79 ft | 18 kts | 271° |
| 2026-05-05 13:04 | 26.07500 | -80.16368 | 79 ft | 16 kts | 270° |
| 2026-05-05 13:04 | 26.07500 | -80.16450 | 79 ft | 10 kts | 270° |
| 2026-05-05 13:04 | 26.07501 | -80.16535 | 79 ft | 12 kts | 270° |
| 2026-05-05 13:05 | 26.07501 | -80.16592 | 79 ft | 7 kts | 271° |
| 2026-05-05 13:05 | 26.07525 | -80.16631 | 79 ft | 7 kts | 340° |
| 2026-05-05 13:05 | 26.07576 | -80.16637 | 79 ft | 8 kts | 358° |
| 2026-05-05 13:05 | 26.07626 | -80.16637 | 79 ft | 3 kts | 1° |
| 2026-05-05 13:06 | 26.07627 | -80.16636 | 79 ft | 0 kts | 0° |
| 2026-05-05 13:09 | 26.07628 | -80.16636 | 79 ft | 1 kts | 1° |
| 2026-05-05 13:09 | 26.07653 | -80.16636 | 79 ft | 7 kts | 0° |
| 2026-05-05 13:09 | 26.07685 | -80.16634 | 79 ft | 3 kts | 26° |
| 2026-05-05 13:09 | 26.07695 | -80.16612 | 79 ft | 4 kts | 87° |
| 2026-05-05 13:10 | 26.07695 | -80.16611 | 79 ft | 0 kts | 88° |
| 2026-05-05 13:10 | 26.07695 | -80.16600 | 79 ft | 10 kts | 88° |
| 2026-05-05 13:10 | 26.07692 | -80.16241 | 79 ft | 84 kts | 89° |
| 2026-05-05 13:10 | 26.07688 | -80.15317 | 80 ft | 149 kts | 89° |
| 2026-05-05 13:11 | 26.07662 | -80.14014 | 361 ft | 173 kts | 91° |
| 2026-05-05 13:11 | 26.07667 | -80.12697 | 1118 ft | 172 kts | 87° |
| 2026-05-05 13:11 | 26.07739 | -80.11300 | 1444 ft | 189 kts | 87° |
| 2026-05-05 13:11 | 26.07781 | -80.09781 | 1802 ft | 204 kts | 89° |
| 2026-05-05 13:12 | 26.07788 | -80.08125 | 2134 ft | 224 kts | 89° |
| 2026-05-05 13:12 | 26.07794 | -80.06332 | 2584 ft | 239 kts | 89° |
| 2026-05-05 13:12 | 26.07650 | -80.04450 | 3070 ft | 252 kts | 107° |
| 2026-05-05 13:12 | 26.06821 | -80.02697 | 3575 ft | 262 kts | 133° |
| 2026-05-05 13:13 | 26.05371 | -80.01447 | 4109 ft | 269 kts | 158° |
| 2026-05-05 13:13 | 26.03559 | -80.00965 | 4777 ft | 267 kts | 184° |
| 2026-05-05 13:13 | 26.01783 | -80.01327 | 5508 ft | 262 kts | 205° |
| 2026-05-05 13:13 | 26.00090 | -80.02158 | 6256 ft | 264 kts | 209° |
| 2026-05-05 13:14 | 25.98421 | -80.03044 | 6958 ft | 268 kts | 211° |
| 2026-05-05 13:14 | 25.96749 | -80.03977 | 7676 ft | 270 kts | 212° |
| 2026-05-05 13:14 | 25.95059 | -80.04931 | 8371 ft | 274 kts | 212° |
| 2026-05-05 13:14 | 25.93344 | -80.05879 | 9048 ft | 277 kts | 211° |
| 2026-05-05 13:15 | 25.91599 | -80.06833 | 9714 ft | 281 kts | 211° |
| 2026-05-05 13:15 | 25.89863 | -80.07784 | 10326 ft | 285 kts | 212° |
| 2026-05-05 13:15 | 25.88050 | -80.08784 | 10743 ft | 297 kts | 212° |
| 2026-05-05 13:15 | 25.86161 | -80.09829 | 11068 ft | 311 kts | 212° |
| 2026-05-05 13:16 | 25.84174 | -80.10920 | 11360 ft | 325 kts | 211° |
| 2026-05-05 13:16 | 25.82095 | -80.12055 | 11641 ft | 338 kts | 211° |
| 2026-05-05 13:16 | 25.79960 | -80.13220 | 12092 ft | 344 kts | 211° |
| 2026-05-05 13:16 | 25.77802 | -80.14398 | 12656 ft | 347 kts | 212° |
| 2026-05-05 13:17 | 25.75621 | -80.15590 | 13203 ft | 349 kts | 212° |
| 2026-05-05 13:17 | 25.73460 | -80.16774 | 13714 ft | 352 kts | 212° |
| 2026-05-05 13:17 | 25.71246 | -80.17988 | 14217 ft | 356 kts | 212° |
| 2026-05-05 13:17 | 25.69019 | -80.19207 | 14702 ft | 359 kts | 212° |
| 2026-05-05 13:18 | 25.66773 | -80.20437 | 15173 ft | 362 kts | 212° |
| 2026-05-05 13:18 | 25.64503 | -80.21681 | 15637 ft | 365 kts | 213° |
| 2026-05-05 13:18 | 25.62215 | -80.22934 | 16090 ft | 368 kts | 213° |
| 2026-05-05 13:18 | 25.59907 | -80.24192 | 16527 ft | 371 kts | 213° |
| 2026-05-05 13:19 | 25.57575 | -80.25463 | 16946 ft | 374 kts | 213° |
| 2026-05-05 13:19 | 25.55228 | -80.26743 | 17362 ft | 377 kts | 213° |
| 2026-05-05 13:19 | 25.52866 | -80.28036 | 17772 ft | 380 kts | 213° |
| 2026-05-05 13:19 | 25.50487 | -80.29333 | 18172 ft | 383 kts | 213° |
| 2026-05-05 13:20 | 25.48086 | -80.30641 | 18552 ft | 386 kts | 213° |
| 2026-05-05 13:20 | 25.45695 | -80.31941 | 18923 ft | 389 kts | 213° |
| 2026-05-05 13:20 | 25.43263 | -80.33266 | 19294 ft | 391 kts | 213° |
| 2026-05-05 13:20 | 25.40800 | -80.34611 | 19658 ft | 394 kts | 213° |
| 2026-05-05 13:21 | 25.38326 | -80.35960 | 20011 ft | 397 kts | 213° |
| 2026-05-05 13:21 | 25.35839 | -80.37313 | 20349 ft | 400 kts | 213° |
| 2026-05-05 13:21 | 25.33330 | -80.38678 | 20684 ft | 403 kts | 213° |
| 2026-05-05 13:21 | 25.30804 | -80.40050 | 21007 ft | 405 kts | 213° |
| 2026-05-05 13:22 | 25.28296 | -80.41412 | 21316 ft | 408 kts | 213° |
| 2026-05-05 13:22 | 25.25740 | -80.42797 | 21626 ft | 411 kts | 213° |
| 2026-05-05 13:22 | 25.23130 | -80.44120 | 21916 ft | 418 kts | 207° |
| 2026-05-05 13:22 | 25.20347 | -80.45153 | 22217 ft | 423 kts | 204° |
| 2026-05-05 13:23 | 25.17513 | -80.46091 | 22501 ft | 427 kts | 203° |
| 2026-05-05 13:23 | 25.14639 | -80.46988 | 22777 ft | 430 kts | 202° |
| 2026-05-05 13:23 | 25.11757 | -80.47885 | 23049 ft | 432 kts | 202° |
| 2026-05-05 13:23 | 25.08857 | -80.48815 | 23311 ft | 434 kts | 203° |
| 2026-05-05 13:24 | 25.05959 | -80.49772 | 23571 ft | 436 kts | 203° |
| 2026-05-05 13:24 | 25.03040 | -80.50742 | 23819 ft | 439 kts | 203° |
| 2026-05-05 13:24 | 25.00108 | -80.51709 | 24062 ft | 441 kts | 203° |
| 2026-05-05 13:24 | 24.97161 | -80.52675 | 24294 ft | 443 kts | 203° |
| 2026-05-05 13:25 | 24.94194 | -80.53642 | 24526 ft | 446 kts | 203° |
| 2026-05-05 13:25 | 24.91211 | -80.54608 | 24751 ft | 448 kts | 202° |
| 2026-05-05 13:25 | 24.88211 | -80.55579 | 24969 ft | 451 kts | 203° |
| 2026-05-05 13:25 | 24.85237 | -80.56652 | 25173 ft | 447 kts | 209° |
| 2026-05-05 13:26 | 24.83364 | -80.57660 | 25306 ft | 441 kts | 218° |
| 2026-05-05 13:26 | 24.80276 | -80.60433 | 25571 ft | 426 kts | 236° |
| 2026-05-05 13:26 | 24.79114 | -80.62141 | 25714 ft | 419 kts | 244° |
| 2026-05-05 13:26 | 24.77583 | -80.64876 | 25936 ft | 419 kts | 246° |
| 2026-05-05 13:27 | 24.76105 | -80.67642 | 26165 ft | 420 kts | 246° |
| 2026-05-05 13:27 | 24.74594 | -80.70404 | 26391 ft | 422 kts | 245° |
| 2026-05-05 13:27 | 24.73022 | -80.73147 | 26618 ft | 425 kts | 244° |
| 2026-05-05 13:27 | 24.71399 | -80.75880 | 26837 ft | 427 kts | 244° |
| 2026-05-05 13:28 | 24.69764 | -80.78620 | 27054 ft | 428 kts | 244° |
| 2026-05-05 13:28 | 24.68140 | -80.81380 | 27264 ft | 429 kts | 245° |
| 2026-05-05 13:28 | 24.66534 | -80.84152 | 27471 ft | 430 kts | 245° |
| 2026-05-05 13:28 | 24.64927 | -80.86938 | 27678 ft | 432 kts | 245° |
| 2026-05-05 13:29 | 24.63312 | -80.89729 | 27886 ft | 433 kts | 245° |
| 2026-05-05 13:29 | 24.61709 | -80.92484 | 28087 ft | 435 kts | 245° |
| 2026-05-05 13:29 | 24.60016 | -80.95253 | 28281 ft | 441 kts | 240° |
| 2026-05-05 13:29 | 24.57921 | -80.97781 | 28464 ft | 455 kts | 230° |
| 2026-05-05 13:30 | 24.55270 | -80.99854 | 28640 ft | 471 kts | 216° |
| 2026-05-05 13:30 | 24.52215 | -81.01206 | 28801 ft | 488 kts | 202° |
| 2026-05-05 13:30 | 24.48807 | -81.01766 | 28977 ft | 502 kts | 188° |
| 2026-05-05 13:30 | 24.45293 | -81.01739 | 29204 ft | 506 kts | 184° |
| 2026-05-05 13:31 | 24.41767 | -81.01596 | 29429 ft | 507 kts | 184° |
| 2026-05-05 13:31 | 24.38244 | -81.01461 | 29665 ft | 506 kts | 185° |
| 2026-05-05 13:31 | 24.34722 | -81.01394 | 29892 ft | 505 kts | 186° |
| 2026-05-05 13:31 | 24.31198 | -81.01398 | 30127 ft | 505 kts | 187° |
| 2026-05-05 13:32 | 24.27730 | -81.01426 | 30346 ft | 505 kts | 187° |
| 2026-05-05 13:32 | 24.24214 | -81.01433 | 30572 ft | 505 kts | 186° |
| 2026-05-05 13:32 | 24.20692 | -81.01402 | 30797 ft | 506 kts | 186° |
| 2026-05-05 13:32 | 24.17165 | -81.01346 | 31021 ft | 506 kts | 186° |
| 2026-05-05 13:33 | 24.13643 | -81.01292 | 31239 ft | 506 kts | 186° |
| 2026-05-05 13:33 | 24.10115 | -81.01256 | 31453 ft | 506 kts | 186° |
| 2026-05-05 13:33 | 24.06598 | -81.01234 | 31671 ft | 506 kts | 186° |
| 2026-05-05 13:33 | 24.03078 | -81.01217 | 31954 ft | 504 kts | 186° |
| 2026-05-05 13:34 | 23.99575 | -81.01175 | 32261 ft | 503 kts | 185° |
| 2026-05-05 13:34 | 23.96119 | -81.01045 | 32552 ft | 501 kts | 185° |
| 2026-05-05 13:34 | 23.92643 | -81.00891 | 32844 ft | 499 kts | 184° |
| 2026-05-05 13:34 | 23.89176 | -81.00731 | 33061 ft | 497 kts | 184° |
| 2026-05-05 13:35 | 23.82362 | -81.00426 | 33060 ft | 486 kts | 184° |
| 2026-05-05 13:35 | 23.75601 | -80.99128 | 33063 ft | 504 kts | 165° |
| 2026-05-05 13:36 | 23.69114 | -80.96326 | 33068 ft | 504 kts | 162° |
| 2026-05-05 13:36 | 23.62524 | -80.93742 | 33066 ft | 501 kts | 166° |
| 2026-05-05 13:37 | 23.55880 | -80.91452 | 33071 ft | 500 kts | 166° |
| 2026-05-05 13:37 | 23.49291 | -80.89016 | 33069 ft | 500 kts | 165° |
| 2026-05-05 13:38 | 23.42719 | -80.86508 | 33065 ft | 499 kts | 165° |
| 2026-05-05 13:38 | 23.36177 | -80.84109 | 33057 ft | 499 kts | 166° |
| 2026-05-05 13:39 | 23.29596 | -80.81704 | 33052 ft | 498 kts | 165° |
| 2026-05-05 13:39 | 23.23027 | -80.79282 | 33053 ft | 498 kts | 165° |
| 2026-05-05 13:40 | 23.16460 | -80.76883 | 33091 ft | 497 kts | 165° |
| 2026-05-05 13:40 | 23.09904 | -80.74491 | 33101 ft | 496 kts | 165° |
| 2026-05-05 13:41 | 23.03358 | -80.72098 | 33095 ft | 495 kts | 165° |
| 2026-05-05 13:41 | 22.96829 | -80.69713 | 33100 ft | 494 kts | 165° |
| 2026-05-05 13:42 | 22.90339 | -80.67351 | 33072 ft | 494 kts | 165° |
| 2026-05-05 13:42 | 22.83820 | -80.64980 | 33062 ft | 494 kts | 165° |
| 2026-05-05 13:43 | 22.77305 | -80.62608 | 33024 ft | 494 kts | 165° |
| 2026-05-05 13:43 | 22.70782 | -80.60235 | 33008 ft | 494 kts | 165° |
| 2026-05-05 13:44 | 22.64261 | -80.57868 | 33013 ft | 494 kts | 165° |
| 2026-05-05 13:44 | 22.57740 | -80.55505 | 33019 ft | 494 kts | 165° |
| 2026-05-05 13:45 | 22.51218 | -80.53144 | 33033 ft | 494 kts | 165° |
| 2026-05-05 13:45 | 22.44732 | -80.50796 | 33067 ft | 493 kts | 165° |
| 2026-05-05 13:46 | 22.38230 | -80.48442 | 33096 ft | 492 kts | 165° |
| 2026-05-05 13:46 | 22.31749 | -80.46103 | 33101 ft | 490 kts | 165° |
| 2026-05-05 13:47 | 22.25278 | -80.43767 | 33066 ft | 489 kts | 165° |
| 2026-05-05 13:47 | 22.18828 | -80.41442 | 33025 ft | 488 kts | 165° |
| 2026-05-05 13:48 | 22.12371 | -80.39118 | 33011 ft | 488 kts | 165° |
| 2026-05-05 13:48 | 22.05919 | -80.36796 | 33008 ft | 489 kts | 165° |
| 2026-05-05 13:49 | 21.99496 | -80.34486 | 33013 ft | 490 kts | 165° |
| 2026-05-05 13:49 | 21.93018 | -80.32161 | 33034 ft | 491 kts | 165° |
| 2026-05-05 13:50 | 21.86528 | -80.29833 | 33093 ft | 490 kts | 165° |
| 2026-05-05 13:50 | 21.80055 | -80.27515 | 33101 ft | 490 kts | 165° |
| 2026-05-05 13:51 | 21.73576 | -80.25190 | 33096 ft | 490 kts | 165° |
| 2026-05-05 13:51 | 21.67103 | -80.22879 | 33075 ft | 490 kts | 166° |
| 2026-05-05 13:52 | 21.60633 | -80.20567 | 33048 ft | 490 kts | 165° |
| 2026-05-05 13:52 | 21.54203 | -80.18266 | 33052 ft | 490 kts | 166° |
| 2026-05-05 13:53 | 21.47736 | -80.15960 | 33052 ft | 490 kts | 166° |
| 2026-05-05 13:53 | 21.41243 | -80.13648 | 33039 ft | 490 kts | 166° |
| 2026-05-05 13:54 | 21.34778 | -80.11346 | 33032 ft | 490 kts | 166° |
| 2026-05-05 13:54 | 21.28303 | -80.09041 | 33034 ft | 490 kts | 166° |
| 2026-05-05 13:55 | 21.21837 | -80.06745 | 33044 ft | 490 kts | 166° |
| 2026-05-05 13:55 | 21.15364 | -80.04448 | 33057 ft | 490 kts | 166° |
| 2026-05-05 13:56 | 21.08925 | -80.02163 | 33064 ft | 490 kts | 166° |
| 2026-05-05 13:56 | 21.02444 | -79.99864 | 33083 ft | 490 kts | 166° |
| 2026-05-05 13:57 | 20.95964 | -79.97572 | 33097 ft | 489 kts | 166° |
| 2026-05-05 13:57 | 20.89523 | -79.95292 | 33101 ft | 487 kts | 165° |
| 2026-05-05 13:58 | 20.83105 | -79.93023 | 33088 ft | 484 kts | 165° |
| 2026-05-05 13:58 | 20.76756 | -79.90782 | 33045 ft | 483 kts | 165° |
| 2026-05-05 13:59 | 20.67177 | -79.87402 | 33010 ft | 482 kts | 165° |
| 2026-05-05 14:00 | 20.58691 | -79.84412 | 33011 ft | 483 kts | 165° |
| 2026-05-05 14:00 | 20.51206 | -79.81779 | 33014 ft | 484 kts | 165° |
| 2026-05-05 14:01 | 20.44802 | -79.79526 | 33070 ft | 484 kts | 165° |
| 2026-05-05 14:01 | 20.38413 | -79.77279 | 33095 ft | 484 kts | 165° |
| 2026-05-05 14:02 | 20.32073 | -79.75056 | 33098 ft | 481 kts | 165° |
| 2026-05-05 14:02 | 20.25724 | -79.72828 | 33088 ft | 479 kts | 165° |
| 2026-05-05 14:03 | 20.19395 | -79.70610 | 33047 ft | 478 kts | 165° |
| 2026-05-05 14:03 | 20.13079 | -79.68400 | 33006 ft | 477 kts | 165° |
| 2026-05-05 14:04 | 20.06767 | -79.66191 | 33010 ft | 477 kts | 165° |
| 2026-05-05 14:04 | 20.00582 | -79.63568 | 33010 ft | 482 kts | 152° |
| 2026-05-05 14:05 | 19.97846 | -79.61492 | 33007 ft | 486 kts | 139° |
| 2026-05-05 14:05 | 19.95468 | -79.58928 | 33023 ft | 487 kts | 133° |
| 2026-05-05 14:05 | 19.91030 | -79.53509 | 33011 ft | 490 kts | 131° |
| 2026-05-05 14:06 | 19.86460 | -79.48101 | 33023 ft | 491 kts | 134° |
| 2026-05-05 14:06 | 19.81766 | -79.42820 | 33081 ft | 491 kts | 134° |
| 2026-05-05 14:07 | 19.76827 | -79.37833 | 33085 ft | 488 kts | 149° |
| 2026-05-05 14:07 | 19.70782 | -79.34772 | 33346 ft | 483 kts | 160° |
| 2026-05-05 14:08 | 19.67666 | -79.33428 | 33527 ft | 483 kts | 161° |
| 2026-05-05 14:08 | 19.64554 | -79.32064 | 33695 ft | 484 kts | 160° |
| 2026-05-05 14:08 | 19.61460 | -79.30647 | 33873 ft | 484 kts | 159° |
| 2026-05-05 14:08 | 19.58377 | -79.29190 | 34035 ft | 485 kts | 159° |
| 2026-05-05 14:09 | 19.55304 | -79.27728 | 34207 ft | 485 kts | 159° |
| 2026-05-05 14:09 | 19.52214 | -79.26274 | 34363 ft | 485 kts | 159° |
| 2026-05-05 14:09 | 19.49124 | -79.24841 | 34521 ft | 485 kts | 159° |
| 2026-05-05 14:09 | 19.46027 | -79.23419 | 34684 ft | 485 kts | 160° |
| 2026-05-05 14:10 | 19.42923 | -79.21999 | 34834 ft | 485 kts | 160° |
| 2026-05-05 14:10 | 19.39830 | -79.20570 | 34982 ft | 485 kts | 159° |
| 2026-05-05 14:10 | 19.34687 | -79.18187 | 35063 ft | 485 kts | 159° |
| 2026-05-05 14:11 | 19.28501 | -79.15299 | 35062 ft | 485 kts | 159° |
| 2026-05-05 14:11 | 19.22360 | -79.12427 | 35061 ft | 485 kts | 159° |
| 2026-05-05 14:12 | 19.16184 | -79.09546 | 35061 ft | 485 kts | 159° |
| 2026-05-05 14:12 | 19.09988 | -79.06663 | 35061 ft | 486 kts | 159° |
| 2026-05-05 14:13 | 19.03798 | -79.03776 | 35052 ft | 486 kts | 159° |
| 2026-05-05 14:13 | 18.97607 | -79.00889 | 35033 ft | 487 kts | 159° |
| 2026-05-05 14:14 | 18.91397 | -78.97990 | 35016 ft | 487 kts | 159° |
| 2026-05-05 14:14 | 18.85186 | -78.95106 | 35012 ft | 488 kts | 160° |
| 2026-05-05 14:15 | 18.78999 | -78.92234 | 35008 ft | 488 kts | 160° |
| 2026-05-05 14:15 | 18.72767 | -78.89347 | 35015 ft | 489 kts | 160° |
| 2026-05-05 14:16 | 18.66541 | -78.86457 | 35028 ft | 489 kts | 160° |
| 2026-05-05 14:16 | 18.60304 | -78.83559 | 35033 ft | 489 kts | 160° |
| 2026-05-05 14:17 | 18.54071 | -78.80661 | 35035 ft | 489 kts | 160° |
| 2026-05-05 14:17 | 18.47865 | -78.77795 | 35036 ft | 490 kts | 160° |
| 2026-05-05 14:18 | 18.41631 | -78.74905 | 35035 ft | 490 kts | 160° |
| 2026-05-05 14:18 | 18.35388 | -78.72009 | 35036 ft | 490 kts | 160° |
| 2026-05-05 14:19 | 18.29139 | -78.69116 | 35039 ft | 490 kts | 160° |
| 2026-05-05 14:19 | 18.22894 | -78.66231 | 35039 ft | 490 kts | 160° |
| 2026-05-05 14:20 | 18.16652 | -78.63338 | 35036 ft | 490 kts | 160° |
| 2026-05-05 14:20 | 18.10446 | -78.60481 | 35033 ft | 490 kts | 160° |
| 2026-05-05 14:21 | 18.04197 | -78.57605 | 35031 ft | 490 kts | 160° |
| 2026-05-05 14:21 | 17.97951 | -78.54715 | 35030 ft | 490 kts | 160° |
| 2026-05-05 14:22 | 17.91695 | -78.51825 | 35030 ft | 490 kts | 160° |
| 2026-05-05 14:22 | 17.85442 | -78.48955 | 35030 ft | 490 kts | 160° |
| 2026-05-05 14:23 | 17.79216 | -78.46094 | 35031 ft | 490 kts | 160° |
| 2026-05-05 14:23 | 17.72973 | -78.43209 | 35032 ft | 490 kts | 160° |
| 2026-05-05 14:24 | 17.66717 | -78.40339 | 35033 ft | 490 kts | 160° |
| 2026-05-05 14:24 | 17.60470 | -78.37475 | 35038 ft | 490 kts | 160° |
| 2026-05-05 14:25 | 17.54242 | -78.34618 | 35037 ft | 490 kts | 160° |
| 2026-05-05 14:25 | 17.47991 | -78.31753 | 35040 ft | 490 kts | 160° |
| 2026-05-05 14:26 | 17.41737 | -78.28897 | 35045 ft | 490 kts | 160° |
| 2026-05-05 14:26 | 17.35479 | -78.26035 | 35051 ft | 490 kts | 160° |
| 2026-05-05 14:27 | 17.29226 | -78.23176 | 35054 ft | 490 kts | 160° |
| 2026-05-05 14:27 | 17.23005 | -78.20339 | 35053 ft | 490 kts | 160° |
| 2026-05-05 14:28 | 17.16837 | -78.17523 | 35044 ft | 475 kts | 160° |
| 2026-05-05 14:28 | 17.10775 | -78.14761 | 35043 ft | 475 kts | 160° |
| 2026-05-05 14:29 | 17.04702 | -78.11996 | 35039 ft | 475 kts | 160° |
| 2026-05-05 14:29 | 16.98636 | -78.09236 | 35038 ft | 475 kts | 160° |
| 2026-05-05 14:30 | 16.92612 | -78.06496 | 35039 ft | 475 kts | 160° |
| 2026-05-05 14:30 | 16.86548 | -78.03739 | 35035 ft | 475 kts | 160° |
| 2026-05-05 14:31 | 16.80480 | -78.00988 | 35033 ft | 475 kts | 160° |
| 2026-05-05 14:31 | 16.74410 | -77.98235 | 35039 ft | 475 kts | 160° |
| 2026-05-05 14:32 | 16.68356 | -77.95490 | 35041 ft | 475 kts | 160° |
| 2026-05-05 14:32 | 16.62290 | -77.92741 | 35052 ft | 474 kts | 160° |
| 2026-05-05 14:33 | 16.56235 | -77.89999 | 35034 ft | 475 kts | 160° |
| 2026-05-05 14:33 | 16.50171 | -77.87257 | 35023 ft | 474 kts | 160° |
| 2026-05-05 14:34 | 16.44151 | -77.84536 | 35012 ft | 475 kts | 160° |
| 2026-05-05 14:34 | 16.38072 | -77.81790 | 35007 ft | 475 kts | 160° |
| 2026-05-05 14:35 | 16.32014 | -77.79053 | 35006 ft | 475 kts | 160° |
| 2026-05-05 14:35 | 16.25950 | -77.76317 | 35005 ft | 475 kts | 160° |
| 2026-05-05 14:36 | 16.19887 | -77.73586 | 35012 ft | 475 kts | 160° |
| 2026-05-05 14:36 | 16.13859 | -77.70867 | 35018 ft | 475 kts | 160° |
| 2026-05-05 14:37 | 16.07801 | -77.68139 | 35025 ft | 475 kts | 160° |
| 2026-05-05 14:37 | 16.01731 | -77.65409 | 35032 ft | 475 kts | 160° |
| 2026-05-05 14:38 | 15.95667 | -77.62681 | 35036 ft | 475 kts | 160° |
| 2026-05-05 14:38 | 15.89600 | -77.59954 | 35017 ft | 475 kts | 161° |
| 2026-05-05 14:39 | 15.83534 | -77.57233 | 35014 ft | 475 kts | 161° |
| 2026-05-05 14:39 | 15.77464 | -77.54506 | 35037 ft | 475 kts | 161° |
| 2026-05-05 14:40 | 15.71406 | -77.51789 | 35068 ft | 473 kts | 161° |
| 2026-05-05 14:40 | 15.65403 | -77.49098 | 35068 ft | 472 kts | 161° |
| 2026-05-05 14:41 | 15.59380 | -77.46401 | 35033 ft | 471 kts | 161° |
| 2026-05-05 14:41 | 15.53363 | -77.43707 | 34992 ft | 470 kts | 161° |
| 2026-05-05 14:42 | 15.47349 | -77.41017 | 34979 ft | 470 kts | 161° |
| 2026-05-05 14:42 | 15.41334 | -77.38328 | 34983 ft | 471 kts | 161° |
| 2026-05-05 14:43 | 15.35299 | -77.35631 | 34978 ft | 472 kts | 161° |
| 2026-05-05 14:43 | 15.29292 | -77.32950 | 35003 ft | 472 kts | 161° |
| 2026-05-05 14:44 | 15.23261 | -77.30259 | 35060 ft | 472 kts | 161° |
| 2026-05-05 14:44 | 15.17218 | -77.27563 | 35059 ft | 472 kts | 161° |
| 2026-05-05 14:45 | 15.11181 | -77.24873 | 35068 ft | 472 kts | 161° |
| 2026-05-05 14:45 | 15.05152 | -77.22188 | 35066 ft | 472 kts | 161° |
| 2026-05-05 14:46 | 14.99061 | -77.19714 | 35049 ft | 466 kts | 170° |
| 2026-05-05 14:46 | 14.92771 | -77.18349 | 35021 ft | 463 kts | 174° |
| 2026-05-05 14:47 | 14.86413 | -77.17184 | 34980 ft | 463 kts | 174° |
| 2026-05-05 14:47 | 14.80114 | -77.15910 | 34981 ft | 464 kts | 173° |
| 2026-05-05 14:48 | 14.73777 | -77.14591 | 34990 ft | 464 kts | 173° |
| 2026-05-05 14:48 | 14.67430 | -77.13328 | 35025 ft | 464 kts | 174° |
| 2026-05-05 14:49 | 14.61074 | -77.12060 | 35044 ft | 464 kts | 173° |
| 2026-05-05 14:49 | 14.54731 | -77.10778 | 35062 ft | 464 kts | 173° |
| 2026-05-05 14:50 | 14.48387 | -77.09504 | 35071 ft | 464 kts | 174° |
| 2026-05-05 14:50 | 14.42070 | -77.08238 | 35071 ft | 464 kts | 174° |
| 2026-05-05 14:51 | 14.35728 | -77.06965 | 35067 ft | 464 kts | 174° |
| 2026-05-05 14:51 | 14.29388 | -77.05693 | 35059 ft | 464 kts | 174° |
| 2026-05-05 14:52 | 14.23045 | -77.04423 | 35044 ft | 464 kts | 174° |
| 2026-05-05 14:52 | 14.16710 | -77.03154 | 35030 ft | 464 kts | 174° |
| 2026-05-05 14:53 | 14.10366 | -77.01885 | 35022 ft | 464 kts | 174° |
| 2026-05-05 14:53 | 14.04026 | -77.00616 | 35047 ft | 463 kts | 174° |
| 2026-05-05 14:54 | 13.97688 | -76.99349 | 35018 ft | 464 kts | 174° |
| 2026-05-05 14:54 | 13.91394 | -76.98091 | 35016 ft | 463 kts | 174° |
| 2026-05-05 14:55 | 13.85040 | -76.96822 | 35002 ft | 464 kts | 174° |
| 2026-05-05 14:55 | 13.78700 | -76.95559 | 34999 ft | 464 kts | 174° |
| 2026-05-05 14:56 | 13.72406 | -76.94302 | 35002 ft | 464 kts | 174° |
| 2026-05-05 14:56 | 13.66067 | -76.93038 | 35003 ft | 464 kts | 174° |
| 2026-05-05 14:57 | 13.59734 | -76.91776 | 35009 ft | 464 kts | 174° |
| 2026-05-05 14:57 | 13.53397 | -76.90513 | 35019 ft | 464 kts | 174° |
| 2026-05-05 14:58 | 13.48124 | -76.89463 | 35027 ft | 464 kts | 174° |
| 2026-05-05 14:58 | 13.41781 | -76.88202 | 35037 ft | 463 kts | 174° |
| 2026-05-05 14:59 | 13.35449 | -76.86943 | 35047 ft | 463 kts | 174° |
| 2026-05-05 14:59 | 13.29114 | -76.85685 | 35058 ft | 463 kts | 174° |
| 2026-05-05 15:00 | 13.23847 | -76.84638 | 35066 ft | 463 kts | 174° |
| 2026-05-05 15:00 | 13.16478 | -76.83174 | 35067 ft | 464 kts | 174° |
| 2026-05-05 15:01 | 13.10139 | -76.81917 | 35067 ft | 464 kts | 174° |
| 2026-05-05 15:01 | 13.03806 | -76.80660 | 35067 ft | 464 kts | 174° |
| 2026-05-05 15:02 | 12.97454 | -76.79401 | 35068 ft | 463 kts | 174° |
| 2026-05-05 15:02 | 12.91115 | -76.78146 | 35065 ft | 463 kts | 174° |
| 2026-05-05 15:03 | 12.84818 | -76.76899 | 35064 ft | 463 kts | 174° |
| 2026-05-05 15:03 | 12.78482 | -76.75645 | 35064 ft | 463 kts | 174° |
| 2026-05-05 15:04 | 12.72152 | -76.74394 | 35064 ft | 463 kts | 173° |
| 2026-05-05 15:04 | 12.65998 | -76.72276 | 35031 ft | 474 kts | 155° |
| 2026-05-05 15:05 | 12.57514 | -76.67002 | 35029 ft | 476 kts | 152° |
| 2026-05-05 15:06 | 12.51845 | -76.63518 | 35024 ft | 475 kts | 154° |
| 2026-05-05 15:06 | 12.46157 | -76.60155 | 35018 ft | 475 kts | 153° |
| 2026-05-05 15:07 | 12.40461 | -76.56702 | 35021 ft | 475 kts | 153° |
| 2026-05-05 15:07 | 12.34779 | -76.53235 | 35024 ft | 475 kts | 153° |
| 2026-05-05 15:08 | 12.29086 | -76.49809 | 35027 ft | 475 kts | 153° |
| 2026-05-05 15:08 | 12.23380 | -76.46368 | 35030 ft | 475 kts | 153° |
| 2026-05-05 15:09 | 12.17726 | -76.42943 | 35033 ft | 475 kts | 153° |
| 2026-05-05 15:09 | 12.12025 | -76.39501 | 35018 ft | 475 kts | 153° |
| 2026-05-05 15:10 | 12.06327 | -76.36067 | 34993 ft | 475 kts | 153° |
| 2026-05-05 15:10 | 12.03488 | -76.34355 | 34802 ft | 472 kts | 153° |
| 2026-05-05 15:10 | 12.00674 | -76.32654 | 34240 ft | 471 kts | 153° |
| 2026-05-05 15:10 | 11.97848 | -76.30949 | 33534 ft | 472 kts | 154° |
| 2026-05-05 15:11 | 11.95019 | -76.29244 | 32988 ft | 470 kts | 154° |
| 2026-05-05 15:11 | 11.92244 | -76.27572 | 32472 ft | 467 kts | 154° |
| 2026-05-05 15:11 | 11.89456 | -76.25892 | 31928 ft | 464 kts | 154° |
| 2026-05-05 15:11 | 11.86676 | -76.24219 | 31387 ft | 462 kts | 154° |
| 2026-05-05 15:12 | 11.83909 | -76.22553 | 30880 ft | 459 kts | 153° |
| 2026-05-05 15:12 | 11.81167 | -76.20902 | 30383 ft | 455 kts | 153° |
| 2026-05-05 15:12 | 11.78446 | -76.19264 | 29875 ft | 453 kts | 153° |
| 2026-05-05 15:12 | 11.75742 | -76.17638 | 29364 ft | 450 kts | 152° |
| 2026-05-05 15:13 | 11.73044 | -76.16014 | 28859 ft | 447 kts | 152° |
| 2026-05-05 15:13 | 11.70408 | -76.14428 | 28366 ft | 445 kts | 152° |
| 2026-05-05 15:13 | 11.67745 | -76.12827 | 27896 ft | 441 kts | 151° |
| 2026-05-05 15:13 | 11.65111 | -76.11244 | 27425 ft | 438 kts | 151° |
| 2026-05-05 15:14 | 11.62492 | -76.09670 | 26919 ft | 436 kts | 150° |
| 2026-05-05 15:14 | 11.59887 | -76.08104 | 26429 ft | 433 kts | 150° |
| 2026-05-05 15:14 | 11.57303 | -76.06551 | 25962 ft | 430 kts | 150° |
| 2026-05-05 15:14 | 11.54730 | -76.05005 | 25496 ft | 427 kts | 150° |
| 2026-05-05 15:15 | 11.52175 | -76.03471 | 25020 ft | 424 kts | 149° |
| 2026-05-05 15:15 | 11.49635 | -76.01945 | 24541 ft | 422 kts | 149° |
| 2026-05-05 15:15 | 11.47116 | -76.00433 | 24072 ft | 419 kts | 150° |
| 2026-05-05 15:15 | 11.44641 | -75.98948 | 23611 ft | 416 kts | 150° |
| 2026-05-05 15:16 | 11.42155 | -75.97457 | 23155 ft | 413 kts | 150° |
| 2026-05-05 15:16 | 11.39690 | -75.95978 | 22722 ft | 409 kts | 150° |
| 2026-05-05 15:16 | 11.37249 | -75.94512 | 22260 ft | 406 kts | 150° |
| 2026-05-05 15:16 | 11.34823 | -75.93057 | 21790 ft | 403 kts | 150° |
| 2026-05-05 15:17 | 11.32410 | -75.91611 | 21336 ft | 400 kts | 150° |
| 2026-05-05 15:17 | 11.30021 | -75.90179 | 20901 ft | 397 kts | 150° |
| 2026-05-05 15:17 | 11.27650 | -75.88759 | 20469 ft | 393 kts | 150° |
| 2026-05-05 15:17 | 11.25307 | -75.87354 | 20045 ft | 389 kts | 150° |
| 2026-05-05 15:18 | 11.22979 | -75.85957 | 19578 ft | 387 kts | 149° |
| 2026-05-05 15:18 | 11.20674 | -75.84575 | 19152 ft | 383 kts | 150° |
| 2026-05-05 15:18 | 11.18380 | -75.83203 | 18709 ft | 380 kts | 150° |
| 2026-05-05 15:18 | 11.16108 | -75.81845 | 18291 ft | 376 kts | 150° |
| 2026-05-05 15:19 | 11.13863 | -75.80502 | 17902 ft | 372 kts | 150° |
| 2026-05-05 15:19 | 11.11636 | -75.79169 | 17497 ft | 369 kts | 150° |
| 2026-05-05 15:19 | 11.09466 | -75.77868 | 17090 ft | 365 kts | 150° |
| 2026-05-05 15:19 | 11.07282 | -75.76561 | 16676 ft | 362 kts | 150° |
| 2026-05-05 15:20 | 11.05113 | -75.75266 | 16263 ft | 359 kts | 150° |
| 2026-05-05 15:20 | 11.02832 | -75.74263 | 15837 ft | 355 kts | 166° |
| 2026-05-05 15:20 | 11.00431 | -75.73765 | 15471 ft | 350 kts | 172° |
| 2026-05-05 15:20 | 10.98036 | -75.73423 | 15099 ft | 346 kts | 174° |
| 2026-05-05 15:21 | 10.95650 | -75.73118 | 14690 ft | 343 kts | 174° |
| 2026-05-05 15:21 | 10.93289 | -75.72792 | 14283 ft | 341 kts | 173° |
| 2026-05-05 15:21 | 10.90952 | -75.72430 | 13881 ft | 339 kts | 172° |
| 2026-05-05 15:21 | 10.88642 | -75.72046 | 13505 ft | 335 kts | 172° |
| 2026-05-05 15:22 | 10.86351 | -75.71663 | 13141 ft | 331 kts | 172° |
| 2026-05-05 15:22 | 10.84081 | -75.71293 | 12780 ft | 328 kts | 172° |
| 2026-05-05 15:22 | 10.81838 | -75.70935 | 12389 ft | 325 kts | 173° |
| 2026-05-05 15:22 | 10.79611 | -75.70582 | 11993 ft | 323 kts | 172° |
| 2026-05-05 15:23 | 10.77401 | -75.70232 | 11605 ft | 320 kts | 172° |
| 2026-05-05 15:23 | 10.75212 | -75.69887 | 11241 ft | 317 kts | 170° |
| 2026-05-05 15:23 | 10.73045 | -75.69540 | 10859 ft | 314 kts | 170° |
| 2026-05-05 15:23 | 10.70913 | -75.69196 | 10491 ft | 311 kts | 170° |
| 2026-05-05 15:24 | 10.68786 | -75.68854 | 10128 ft | 306 kts | 170° |
| 2026-05-05 15:24 | 10.66700 | -75.68521 | 9797 ft | 299 kts | 170° |
| 2026-05-05 15:24 | 10.64686 | -75.68200 | 9518 ft | 289 kts | 170° |
| 2026-05-05 15:24 | 10.62699 | -75.67883 | 9116 ft | 289 kts | 170° |
| 2026-05-05 15:25 | 10.60713 | -75.67564 | 8734 ft | 288 kts | 170° |
| 2026-05-05 15:25 | 10.58736 | -75.67248 | 8372 ft | 287 kts | 170° |
| 2026-05-05 15:25 | 10.56769 | -75.66935 | 8024 ft | 285 kts | 170° |
| 2026-05-05 15:25 | 10.54818 | -75.66623 | 7684 ft | 283 kts | 170° |
| 2026-05-05 15:26 | 10.52871 | -75.66312 | 7330 ft | 282 kts | 169° |
| 2026-05-05 15:26 | 10.50932 | -75.66002 | 6966 ft | 281 kts | 169° |
| 2026-05-05 15:26 | 10.49005 | -75.65695 | 6616 ft | 279 kts | 169° |
| 2026-05-05 15:26 | 10.47092 | -75.65390 | 6284 ft | 277 kts | 169° |
| 2026-05-05 15:27 | 10.45192 | -75.65087 | 5953 ft | 275 kts | 169° |
| 2026-05-05 15:27 | 10.43305 | -75.64785 | 5625 ft | 273 kts | 169° |
| 2026-05-05 15:27 | 10.41431 | -75.64486 | 5296 ft | 271 kts | 169° |
| 2026-05-05 15:27 | 10.39565 | -75.64189 | 4956 ft | 270 kts | 169° |
| 2026-05-05 15:28 | 10.37712 | -75.63895 | 4606 ft | 269 kts | 169° |
| 2026-05-05 15:28 | 10.35862 | -75.63600 | 4265 ft | 268 kts | 169° |
| 2026-05-05 15:28 | 10.34028 | -75.63306 | 4014 ft | 263 kts | 169° |
| 2026-05-05 15:28 | 10.32266 | -75.63025 | 3999 ft | 249 kts | 169° |
| 2026-05-05 15:29 | 10.30604 | -75.62761 | 3995 ft | 234 kts | 169° |
| 2026-05-05 15:29 | 10.29039 | -75.62493 | 3990 ft | 221 kts | 165° |
| 2026-05-05 15:29 | 10.27710 | -75.61928 | 3986 ft | 201 kts | 142° |
| 2026-05-05 15:29 | 10.26823 | -75.60946 | 4007 ft | 180 kts | 118° |
| 2026-05-05 15:30 | 10.26546 | -75.59752 | 3936 ft | 172 kts | 94° |
| 2026-05-05 15:30 | 10.26549 | -75.58557 | 3783 ft | 165 kts | 91° |
| 2026-05-05 15:30 | 10.26545 | -75.57398 | 3493 ft | 164 kts | 93° |
| 2026-05-05 15:30 | 10.26503 | -75.56254 | 3293 ft | 159 kts | 94° |
| 2026-05-05 15:31 | 10.26454 | -75.55168 | 3139 ft | 151 kts | 94° |
| 2026-05-05 15:31 | 10.26413 | -75.54111 | 2999 ft | 150 kts | 94° |
| 2026-05-05 15:31 | 10.26456 | -75.53049 | 2997 ft | 152 kts | 78° |
| 2026-05-05 15:31 | 10.27022 | -75.52148 | 2984 ft | 158 kts | 39° |
| 2026-05-05 15:32 | 10.28069 | -75.51801 | 2787 ft | 162 kts | 5° |
| 2026-05-05 15:32 | 10.29200 | -75.51828 | 2542 ft | 162 kts | 0° |
| 2026-05-05 15:32 | 10.30321 | -75.51847 | 2296 ft | 161 kts | 3° |
| 2026-05-05 15:32 | 10.31429 | -75.51811 | 2063 ft | 156 kts | 3° |
| 2026-05-05 15:33 | 10.32468 | -75.51764 | 1871 ft | 146 kts | 4° |
| 2026-05-05 15:33 | 10.33476 | -75.51720 | 1662 ft | 145 kts | 5° |
| 2026-05-05 15:33 | 10.34485 | -75.51679 | 1630 ft | 146 kts | 5° |
| 2026-05-05 15:33 | 10.35500 | -75.51639 | 1549 ft | 146 kts | 5° |
| 2026-05-05 15:34 | 10.36506 | -75.51600 | 1348 ft | 144 kts | 5° |
| 2026-05-05 15:34 | 10.37504 | -75.51560 | 1151 ft | 143 kts | 5° |
| 2026-05-05 15:34 | 10.38499 | -75.51520 | 953 ft | 142 kts | 5° |
| 2026-05-05 15:34 | 10.39488 | -75.51481 | 759 ft | 141 kts | 4° |
| 2026-05-05 15:35 | 10.40471 | -75.51440 | 567 ft | 141 kts | 4° |
| 2026-05-05 15:35 | 10.41438 | -75.51395 | 372 ft | 141 kts | 2° |
| 2026-05-05 15:35 | 10.42410 | -75.51368 | 190 ft | 140 kts | 2° |
| 2026-05-05 15:35 | 10.43383 | -75.51329 | 30 ft | 139 kts | 2° |
| 2026-05-05 15:36 | 10.44236 | -75.51297 | 21 ft | 101 kts | 3° |
| 2026-05-05 15:36 | 10.44758 | -75.51275 | 21 ft | 51 kts | 2° |
| 2026-05-05 15:36 | 10.45022 | -75.51266 | 21 ft | 27 kts | 1° |
| 2026-05-05 15:36 | 10.45166 | -75.51252 | 21 ft | 15 kts | 335° |
| 2026-05-05 15:37 | 10.45210 | -75.51268 | 21 ft | 2 kts | 57° |
| 2026-05-05 15:37 | 10.45186 | -75.51257 | 21 ft | 6 kts | 180° |
| 2026-05-05 15:37 | 10.45141 | -75.51259 | 21 ft | 7 kts | 182° |
| 2026-05-05 15:37 | 10.45075 | -75.51262 | 21 ft | 13 kts | 182° |
| 2026-05-05 15:38 | 10.44978 | -75.51266 | 21 ft | 15 kts | 182° |
| 2026-05-05 15:38 | 10.44907 | -75.51269 | 21 ft | 16 kts | 182° |
| 2026-05-05 15:38 | 10.44760 | -75.51273 | 21 ft | 10 kts | 176° |
| 2026-05-05 15:38 | 10.44722 | -75.51299 | 21 ft | 8 kts | 268° |
| 2026-05-05 15:39 | 10.44720 | -75.51359 | 21 ft | 8 kts | 267° |
| 2026-05-05 15:39 | 10.44716 | -75.51416 | 21 ft | 8 kts | 266° |
| 2026-05-05 15:39 | 10.44702 | -75.51465 | 21 ft | 7 kts | 214° |
| 2026-05-05 15:39 | 10.44685 | -75.51498 | 21 ft | 5 kts | 264° |
| 2026-05-05 15:40 | 10.44685 | -75.51534 | 21 ft | 4 kts | 271° |
| 2026-05-05 15:40 | 10.44685 | -75.51543 | 21 ft | 0 kts | 271° |